createdAt,value
2019-06-26T00:01:07.407Z,60.67
2019-06-26T00:03:38.508Z,60.82
2019-06-26T00:06:09.214Z,60.74
2019-06-26T00:08:40.057Z,60.90
2019-06-26T00:11:11.055Z,60.95
2019-06-26T00:13:41.730Z,61.17
2019-06-26T00:16:12.452Z,61.36
2019-06-26T00:18:44.495Z,61.75
2019-06-26T00:21:15.555Z,61.68
2019-06-26T00:23:46.651Z,61.80
2019-06-26T00:26:17.396Z,62.07
2019-06-26T00:28:48.090Z,62.17
2019-06-26T00:31:19.106Z,62.01
2019-06-26T00:33:49.827Z,62.06
2019-06-26T00:36:20.521Z,62.02
2019-06-26T00:38:51.295Z,62.13
2019-06-26T00:41:22.537Z,62.26
2019-06-26T00:43:53.240Z,62.46
2019-06-26T00:46:24.088Z,62.49
2019-06-26T00:48:55.103Z,62.78
2019-06-26T00:51:25.811Z,62.87
2019-06-26T00:53:56.493Z,63.07
2019-06-26T00:56:27.532Z,63.28
2019-06-26T00:58:58.322Z,63.53
2019-06-26T01:01:29.135Z,64.03
2019-06-26T01:04:01.451Z,63.85
2019-06-26T01:06:44.421Z,63.93
2019-06-26T01:09:16.312Z,64.28
2019-06-26T01:11:47.327Z,64.25
2019-06-26T01:14:18.095Z,64.45
2019-06-26T01:16:50.376Z,65.20
2019-06-26T01:19:21.371Z,65.65
2019-06-26T01:21:52.347Z,65.81
2019-06-26T01:24:23.025Z,66.53
2019-06-26T01:26:54.023Z,66.33
2019-06-26T01:29:24.702Z,66.41
2019-06-26T01:31:55.423Z,66.29
2019-06-26T01:34:26.094Z,66.50
2019-06-26T01:36:56.831Z,66.67
2019-06-26T01:39:27.840Z,66.76
2019-06-26T01:41:58.989Z,66.80
2019-06-26T01:44:29.642Z,67.02
2019-06-26T01:47:00.444Z,67.53
2019-06-26T01:49:31.168Z,67.69
2019-06-26T01:52:02.041Z,67.38
2019-06-26T01:54:33.081Z,67.82
2019-06-26T01:57:04.058Z,67.58
2019-06-26T01:59:35.048Z,67.96
2019-06-26T02:02:05.888Z,68.03
2019-06-26T02:04:37.739Z,68.22
2019-06-26T02:07:08.430Z,68.17
2019-06-26T02:09:39.577Z,68.27
2019-06-26T02:12:10.441Z,68.14
2019-06-26T02:14:41.188Z,68.07
2019-06-26T02:17:11.905Z,67.94
2019-06-26T02:19:43.029Z,67.85
2019-06-26T02:22:13.755Z,67.45
2019-06-26T02:24:44.449Z,67.68
2019-06-26T02:27:15.213Z,67.92
2019-06-26T02:29:46.195Z,67.68
2019-06-26T02:32:17.240Z,67.72
2019-06-26T02:34:47.925Z,67.87
2019-06-26T02:37:19.053Z,68.10
2019-06-26T02:39:49.830Z,68.36
2019-06-26T02:42:20.920Z,68.09
2019-06-26T02:44:54.463Z,68.34
2019-06-26T02:47:24.310Z,67.80
2019-06-26T02:49:55.022Z,68.10
2019-06-26T02:52:25.679Z,67.93
2019-06-26T02:54:56.846Z,68.38
2019-06-26T02:57:27.869Z,68.54
2019-06-26T03:00:00.000Z,68.51
2019-06-26T03:02:31.266Z,68.35
2019-06-26T03:05:01.991Z,68.31
2019-06-26T03:07:33.040Z,68.31
2019-06-26T03:10:05.318Z,68.36
2019-06-26T03:12:36.790Z,68.51
2019-06-26T03:15:10.002Z,68.52
2019-06-26T03:17:54.039Z,68.83
2019-06-26T03:20:14.674Z,68.65
2019-06-26T03:22:45.444Z,68.54
2019-06-26T03:25:16.527Z,68.19
2019-06-26T03:27:47.241Z,68.46
2019-06-26T03:30:19.423Z,68.51
2019-06-26T03:32:50.088Z,68.51
2019-06-26T03:35:20.919Z,68.78
2019-06-26T03:37:51.999Z,68.64
2019-06-26T03:40:22.743Z,68.82
2019-06-26T03:42:53.813Z,68.54
2019-06-26T03:45:26.389Z,68.47
2019-06-26T03:47:57.027Z,68.54
2019-06-26T03:50:27.739Z,68.47
2019-06-26T03:52:58.742Z,68.60
2019-06-26T03:55:29.613Z,68.20
2019-06-26T03:58:00.703Z,68.12
2019-06-26T04:00:43.015Z,67.86
2019-06-26T04:03:14.384Z,68.02
2019-06-26T04:05:45.583Z,67.97
2019-06-26T04:08:16.725Z,67.50
2019-06-26T04:10:47.817Z,67.24
2019-06-26T04:13:18.738Z,67.02
2019-06-26T04:15:51.147Z,66.83
2019-06-26T04:18:22.012Z,66.53
2019-06-26T04:20:52.883Z,65.99
2019-06-26T04:23:23.951Z,65.26
2019-06-26T04:25:54.717Z,64.22
2019-06-26T04:28:25.824Z,62.22
2019-06-26T04:30:56.824Z,57.01
2019-06-26T04:33:27.528Z,52.39
2019-06-26T04:35:58.491Z,48.78
2019-06-26T04:38:29.537Z,46.72
2019-06-26T04:41:00.796Z,44.04
2019-06-26T04:43:31.802Z,41.55
2019-06-26T04:46:03.172Z,39.85
2019-06-26T04:48:34.246Z,39.07
2019-06-26T04:51:05.725Z,38.75
2019-06-26T04:53:36.893Z,38.10
2019-06-26T04:56:07.966Z,38.19
2019-06-26T04:58:39.083Z,39.25
2019-06-26T05:01:09.777Z,41.99
2019-06-26T05:03:40.925Z,44.05
2019-06-26T05:06:12.241Z,46.20
2019-06-26T05:08:42.945Z,47.41
2019-06-26T05:11:13.798Z,49.26
2019-06-26T05:13:44.492Z,49.91
2019-06-26T05:16:19.938Z,50.61
2019-06-26T05:18:47.621Z,51.25
2019-06-26T05:21:18.752Z,51.58
2019-06-26T05:23:49.432Z,51.72
2019-06-26T05:26:20.564Z,50.42
2019-06-26T05:28:51.570Z,49.40
2019-06-26T05:31:22.729Z,47.78
2019-06-26T05:33:53.424Z,44.77
2019-06-26T05:36:24.547Z,43.58
2019-06-26T05:38:55.656Z,43.54
2019-06-26T05:41:27.692Z,45.10
2019-06-26T05:43:58.401Z,46.08
2019-06-26T05:46:31.580Z,46.99
2019-06-26T05:49:01.779Z,47.61
2019-06-26T05:51:32.465Z,47.42
2019-06-26T05:54:03.169Z,47.45
2019-06-26T05:56:34.461Z,47.62
2019-06-26T05:59:05.679Z,48.39
2019-06-26T06:01:36.419Z,48.44
2019-06-26T06:04:07.469Z,48.27
2019-06-26T06:06:42.017Z,46.82
2019-06-26T06:09:10.706Z,45.62
2019-06-26T06:11:41.721Z,45.28
2019-06-26T06:14:12.758Z,43.36
2019-06-26T06:16:47.711Z,41.76
2019-06-26T06:19:15.906Z,40.31
2019-06-26T06:21:48.037Z,39.75
2019-06-26T06:24:18.797Z,40.44
2019-06-26T06:26:49.908Z,41.61
2019-06-26T06:29:20.816Z,42.75
2019-06-26T06:31:51.957Z,43.42
2019-06-26T06:34:23.025Z,44.46
2019-06-26T06:36:53.710Z,44.35
2019-06-26T06:39:24.690Z,44.89
2019-06-26T06:41:55.726Z,44.98
2019-06-26T06:44:26.420Z,45.28
2019-06-26T06:47:04.073Z,45.46
2019-06-26T06:49:29.856Z,45.05
2019-06-26T06:52:00.901Z,44.71
2019-06-26T06:54:31.933Z,44.21
2019-06-26T06:57:02.813Z,45.14
2019-06-26T06:59:33.463Z,45.71
2019-06-26T07:02:04.180Z,46.58
2019-06-26T07:04:34.900Z,46.64
2019-06-26T07:07:05.566Z,46.35
2019-06-26T07:09:36.234Z,45.66
2019-06-26T07:12:07.345Z,45.84
2019-06-26T07:14:38.338Z,45.80
2019-06-26T07:17:19.951Z,45.54
2019-06-26T07:19:41.637Z,45.24
2019-06-26T07:22:12.514Z,45.40
2019-06-26T07:24:43.519Z,44.85
2019-06-26T07:27:14.386Z,44.00
2019-06-26T07:29:45.081Z,43.77
2019-06-26T07:32:16.111Z,43.42
2019-06-26T07:34:47.187Z,43.16
2019-06-26T07:37:20.926Z,42.01
2019-06-26T07:39:50.556Z,41.79
2019-06-26T07:42:21.661Z,42.01
2019-06-26T07:44:53.321Z,42.18
2019-06-26T07:47:41.559Z,41.96
2019-06-26T07:49:56.792Z,42.56
2019-06-26T07:52:27.804Z,42.88
2019-06-26T07:54:58.507Z,41.85
2019-06-26T07:57:29.503Z,40.30
2019-06-26T08:00:04.916Z,38.22
2019-06-26T08:02:30.262Z,34.39
2019-06-26T08:05:01.000Z,32.21
2019-06-26T08:07:33.286Z,30.53
2019-06-26T08:10:05.746Z,29.16
2019-06-26T08:12:37.702Z,26.80
2019-06-26T08:15:09.271Z,26.57
2019-06-26T08:17:39.991Z,25.44
2019-06-26T08:20:11.320Z,24.21
2019-06-26T08:22:42.105Z,24.23
2019-06-26T08:25:13.159Z,23.98
2019-06-26T08:27:44.913Z,23.69
2019-06-26T08:30:16.449Z,22.79
2019-06-26T08:32:47.505Z,24.41
2019-06-26T08:35:18.801Z,26.06
2019-06-26T08:37:49.899Z,26.07
2019-06-26T08:40:21.196Z,25.38
2019-06-26T08:42:51.896Z,24.86
2019-06-26T08:45:22.705Z,23.63
2019-06-26T08:47:53.832Z,25.65
2019-06-26T08:50:24.756Z,25.70
2019-06-26T08:52:55.831Z,25.37
2019-06-26T08:55:27.773Z,27.70
2019-06-26T08:57:58.837Z,26.15
2019-06-26T09:00:29.886Z,26.23
2019-06-26T09:03:00.548Z,27.43
2019-06-26T09:05:47.008Z,27.56
2019-06-26T09:08:05.521Z,27.75
2019-06-26T09:10:37.004Z,27.73
2019-06-26T09:13:07.738Z,28.48
2019-06-26T09:15:38.821Z,29.21
2019-06-26T09:18:09.817Z,28.62
2019-06-26T09:20:41.955Z,30.76
2019-06-26T09:23:12.912Z,31.19
2019-06-26T09:25:43.981Z,31.04
2019-06-26T09:28:14.671Z,30.25
2019-06-26T09:30:45.757Z,30.80
2019-06-26T09:33:16.801Z,29.15
2019-06-26T09:35:47.583Z,28.44
2019-06-26T09:38:18.636Z,27.21
2019-06-26T09:40:49.615Z,26.88
2019-06-26T09:43:20.557Z,27.78
2019-06-26T09:45:51.267Z,29.99
2019-06-26T09:48:21.950Z,29.03
2019-06-26T09:50:52.919Z,27.98
2019-06-26T09:53:23.901Z,28.53
2019-06-26T09:55:54.666Z,26.92
2019-06-26T09:58:25.646Z,28.39
2019-06-26T10:00:56.292Z,29.11
2019-06-26T10:03:27.042Z,27.94
2019-06-26T10:05:58.152Z,28.30
2019-06-26T10:08:28.866Z,29.24
2019-06-26T10:10:59.656Z,28.74
2019-06-26T10:13:30.852Z,27.70
2019-06-26T10:16:01.583Z,26.31
2019-06-26T10:18:32.657Z,25.60
2019-06-26T10:21:03.363Z,25.87
2019-06-26T10:23:34.136Z,25.10
2019-06-26T10:26:04.801Z,24.45
2019-06-26T10:28:35.736Z,23.89
2019-06-26T10:31:06.916Z,26.40
2019-06-26T10:33:37.877Z,25.82
2019-06-26T10:36:08.609Z,26.53
2019-06-26T10:38:42.927Z,26.31
2019-06-26T10:41:14.182Z,27.50
2019-06-26T10:43:45.273Z,27.78
2019-06-26T10:46:16.448Z,27.23
2019-06-26T10:48:47.374Z,26.11
2019-06-26T10:51:18.387Z,25.08
2019-06-26T10:53:49.177Z,24.26
2019-06-26T10:56:19.865Z,24.85
2019-06-26T10:58:50.995Z,25.55
2019-06-26T11:01:21.650Z,25.04
2019-06-26T11:03:53.621Z,24.87
2019-06-26T11:06:24.456Z,23.82
2019-06-26T11:08:55.492Z,24.81
2019-06-26T11:11:26.452Z,23.85
2019-06-26T11:13:57.409Z,24.72
2019-06-26T11:16:28.449Z,25.14
2019-06-26T11:18:59.279Z,25.40
2019-06-26T11:21:30.370Z,24.77
2019-06-26T11:24:01.011Z,26.20
2019-06-26T11:26:32.147Z,25.19
2019-06-26T11:29:03.473Z,25.41
2019-06-26T11:31:34.516Z,24.91
2019-06-26T11:34:05.190Z,24.69
2019-06-26T11:36:36.002Z,25.80
2019-06-26T11:39:09.101Z,25.09
2019-06-26T11:41:40.033Z,25.35
2019-06-26T11:44:11.011Z,25.76
2019-06-26T11:46:41.719Z,25.29
2019-06-26T11:49:12.470Z,24.11
2019-06-26T11:51:43.548Z,24.29
2019-06-26T11:54:14.225Z,24.42
2019-06-26T11:56:44.902Z,23.76
2019-06-26T11:59:15.910Z,23.84
2019-06-26T12:01:46.599Z,22.61
2019-06-26T12:04:17.659Z,24.03
2019-06-26T12:06:48.783Z,24.39
2019-06-26T12:09:19.560Z,25.58
2019-06-26T12:11:50.673Z,26.63
2019-06-26T12:14:21.791Z,27.52
2019-06-26T12:16:53.764Z,27.39
2019-06-26T12:19:24.675Z,27.30
2019-06-26T12:21:55.672Z,27.30
2019-06-26T12:24:26.796Z,27.02
2019-06-26T12:26:57.936Z,27.06
2019-06-26T12:29:32.669Z,27.53
2019-06-26T12:32:02.741Z,27.92
2019-06-26T12:34:33.708Z,28.38
2019-06-26T12:37:04.857Z,27.54
2019-06-26T12:39:35.934Z,27.72
2019-06-26T12:42:06.936Z,28.25
2019-06-26T12:44:38.032Z,28.34
2019-06-26T12:47:08.870Z,28.48
2019-06-26T12:49:40.603Z,28.46
2019-06-26T12:52:11.645Z,28.66
2019-06-26T12:54:42.469Z,28.86
2019-06-26T12:57:13.664Z,28.90
2019-06-26T12:59:56.810Z,28.77
2019-06-26T13:02:17.334Z,28.27
2019-06-26T13:04:48.240Z,28.50
2019-06-26T13:07:18.987Z,28.44
2019-06-26T13:09:49.637Z,28.17
2019-06-26T13:12:20.432Z,28.98
2019-06-26T13:14:51.118Z,28.56
2019-06-26T13:17:21.856Z,28.99
2019-06-26T13:19:53.621Z,28.51
2019-06-26T13:22:24.622Z,28.78
2019-06-26T13:24:55.503Z,28.44
2019-06-26T13:27:26.790Z,28.43
2019-06-26T13:29:57.833Z,28.20
2019-06-26T13:32:29.845Z,28.35
2019-06-26T13:35:00.953Z,27.51
2019-06-26T13:37:32.253Z,27.21
2019-06-26T13:40:05.506Z,27.17
2019-06-26T13:42:36.409Z,26.65
2019-06-26T13:45:09.231Z,26.79
2019-06-26T13:47:40.081Z,27.02
2019-06-26T13:50:11.651Z,26.53
2019-06-26T13:52:42.494Z,26.62
2019-06-26T13:55:14.180Z,26.87
2019-06-26T13:57:44.918Z,26.06
2019-06-26T14:00:17.343Z,26.02
2019-06-26T14:02:48.389Z,26.50
2019-06-26T14:05:20.523Z,26.12
2019-06-26T14:07:51.497Z,26.23
2019-06-26T14:10:22.553Z,25.83
2019-06-26T14:12:53.644Z,26.00
2019-06-26T14:15:25.557Z,27.10
2019-06-26T14:17:56.284Z,26.10
2019-06-26T14:20:27.284Z,25.91
2019-06-26T14:22:57.962Z,25.33
2019-06-26T14:25:28.839Z,26.15
2019-06-26T14:27:59.858Z,24.39
2019-06-26T14:30:30.848Z,25.09
2019-06-26T14:33:01.553Z,25.02
2019-06-26T14:35:32.520Z,25.88
2019-06-26T14:38:03.575Z,25.65
2019-06-26T14:40:34.595Z,25.60
2019-06-26T14:43:05.312Z,26.09
2019-06-26T14:45:36.348Z,25.62
2019-06-26T14:48:07.383Z,25.49
2019-06-26T14:50:38.554Z,25.48
2019-06-26T14:53:09.818Z,25.67
2019-06-26T14:55:40.626Z,26.05
2019-06-26T14:58:11.316Z,25.82
2019-06-26T15:00:42.602Z,25.65
2019-06-26T15:03:13.462Z,25.95
2019-06-26T15:05:44.504Z,26.08
2019-06-26T15:08:15.184Z,26.10
2019-06-26T15:10:45.957Z,26.10
2019-06-26T15:13:16.965Z,26.09
2019-06-26T15:15:48.039Z,25.98
2019-06-26T15:18:18.882Z,25.89
2019-06-26T15:20:49.681Z,25.62
2019-06-26T15:23:22.551Z,26.13
2019-06-26T15:25:53.614Z,26.55
2019-06-26T15:28:27.980Z,27.10
2019-06-26T15:30:59.043Z,26.74
2019-06-26T15:33:29.784Z,26.56
2019-06-26T15:36:00.750Z,26.53
2019-06-26T15:38:31.436Z,26.96
2019-06-26T15:41:02.227Z,27.35
2019-06-26T15:43:33.757Z,27.59
2019-06-26T15:46:05.366Z,27.44
2019-06-26T15:48:36.376Z,28.31
2019-06-26T15:51:07.122Z,27.83
2019-06-26T15:53:37.810Z,27.95
2019-06-26T15:56:08.681Z,28.08
2019-06-26T15:58:39.488Z,28.20
2019-06-26T16:01:10.229Z,27.91
2019-06-26T16:03:41.193Z,27.88
2019-06-26T16:06:12.293Z,28.05
2019-06-26T16:08:43.292Z,28.24
2019-06-26T16:11:14.404Z,27.87
2019-06-26T16:13:45.478Z,27.57
2019-06-26T16:16:16.314Z,27.88
2019-06-26T16:18:48.982Z,27.73
2019-06-26T16:21:19.822Z,27.88
2019-06-26T16:23:50.627Z,28.34
2019-06-26T16:26:21.324Z,28.83
2019-06-26T16:28:52.557Z,28.47
2019-06-26T16:31:23.512Z,28.28
2019-06-26T16:33:54.494Z,28.67
2019-06-26T16:36:25.553Z,28.87
2019-06-26T16:38:56.490Z,28.84
2019-06-26T16:41:27.442Z,28.81
2019-06-26T16:43:58.439Z,29.26
2019-06-26T16:46:29.418Z,29.41
2019-06-26T16:49:00.530Z,29.46
2019-06-26T16:51:31.463Z,29.38
2019-06-26T16:54:02.174Z,29.56
2019-06-26T16:56:33.105Z,29.88
2019-06-26T16:59:04.292Z,29.91
2019-06-26T17:01:35.034Z,29.95
2019-06-26T17:04:05.760Z,29.93
2019-06-26T17:06:37.396Z,29.99
2019-06-26T17:09:09.928Z,30.09
2019-06-26T17:11:40.873Z,30.81
2019-06-26T17:14:11.582Z,30.41
2019-06-26T17:16:42.281Z,30.39
2019-06-26T17:19:13.274Z,30.48
2019-06-26T17:21:44.241Z,30.59
2019-06-26T17:24:15.262Z,30.45
2019-06-26T17:26:46.076Z,31.06
2019-06-26T17:29:17.030Z,31.03
2019-06-26T17:31:47.724Z,31.14
2019-06-26T17:34:18.722Z,30.99
2019-06-26T17:36:50.661Z,31.05
2019-06-26T17:39:21.646Z,31.28
2019-06-26T17:41:52.639Z,31.28
2019-06-26T17:44:23.597Z,31.55
2019-06-26T17:46:54.544Z,31.47
2019-06-26T17:49:25.488Z,31.78
2019-06-26T17:51:56.205Z,31.86
2019-06-26T17:54:27.170Z,32.08
2019-06-26T17:56:57.873Z,32.38
2019-06-26T17:59:28.570Z,32.47
2019-06-26T18:01:59.278Z,32.81
2019-06-26T18:04:30.003Z,33.28
2019-06-26T18:07:00.716Z,33.23
2019-06-26T18:09:31.689Z,33.45
2019-06-26T18:12:02.483Z,33.67
2019-06-26T18:14:33.500Z,34.15
2019-06-26T18:17:20.914Z,34.34
2019-06-26T18:19:37.264Z,35.00
2019-06-26T18:22:08.388Z,35.11
2019-06-26T18:24:39.330Z,35.58
2019-06-26T18:27:10.127Z,35.78
2019-06-26T18:29:40.873Z,36.79
2019-06-26T18:32:11.848Z,37.80
2019-06-26T18:34:46.905Z,38.28
2019-06-26T18:37:20.943Z,38.75
2019-06-26T18:39:57.743Z,38.94
2019-06-26T18:42:29.016Z,39.41
2019-06-26T18:45:00.041Z,39.24
2019-06-26T18:47:31.053Z,39.42
2019-06-26T18:50:01.883Z,39.78
2019-06-26T18:52:32.954Z,39.57
2019-06-26T18:55:05.474Z,39.77
2019-06-26T18:57:36.469Z,39.72
2019-06-26T19:00:09.940Z,39.79
2019-06-26T19:02:41.005Z,39.93
2019-06-26T19:05:12.465Z,39.94
2019-06-26T19:07:43.182Z,40.21
2019-06-26T19:10:16.544Z,39.93
2019-06-26T19:12:48.669Z,39.89
2019-06-26T19:15:20.224Z,40.26
2019-06-26T19:17:51.525Z,40.20
2019-06-26T19:20:23.183Z,40.30
2019-06-26T19:22:53.844Z,40.54
2019-06-26T19:25:24.933Z,40.40
2019-06-26T19:27:55.896Z,40.12
2019-06-26T19:30:26.927Z,40.60
2019-06-26T19:32:57.634Z,40.45
2019-06-26T19:35:28.582Z,40.96
2019-06-26T19:37:59.401Z,40.90
2019-06-26T19:40:30.100Z,40.48
2019-06-26T19:43:00.887Z,40.58
2019-06-26T19:45:31.869Z,40.96
2019-06-26T19:48:02.970Z,40.98
2019-06-26T19:50:34.337Z,41.26
2019-06-26T19:53:07.218Z,41.37
2019-06-26T19:55:38.253Z,41.46
2019-06-26T19:58:09.174Z,41.33
2019-06-26T20:00:40.160Z,41.80
2019-06-26T20:03:11.149Z,41.79
2019-06-26T20:05:42.097Z,41.81
2019-06-26T20:08:13.090Z,42.08
2019-06-26T20:10:44.004Z,42.23
2019-06-26T20:13:14.705Z,41.96
2019-06-26T20:15:45.450Z,42.37
2019-06-26T20:18:16.248Z,42.59
2019-06-26T20:20:46.984Z,42.77
2019-06-26T20:23:17.767Z,43.31
2019-06-26T20:25:52.528Z,43.75
2019-06-26T20:28:23.592Z,43.95
2019-06-26T20:30:54.447Z,44.28
2019-06-26T20:33:25.721Z,44.59
2019-06-26T20:35:56.457Z,45.12
2019-06-26T20:38:27.741Z,45.26
2019-06-26T20:40:59.264Z,45.78
2019-06-26T20:43:30.094Z,45.75
2019-06-26T20:46:01.189Z,45.88
2019-06-26T20:48:32.176Z,45.68
2019-06-26T20:51:03.262Z,45.67
2019-06-26T20:53:34.264Z,45.84
2019-06-26T20:56:05.723Z,45.84
2019-06-26T20:58:39.095Z,46.11
2019-06-26T21:01:10.043Z,46.12
2019-06-26T21:03:40.886Z,46.28
2019-06-26T21:06:12.558Z,46.41
2019-06-26T21:08:43.655Z,46.60
2019-06-26T21:11:15.991Z,46.48
2019-06-26T21:13:48.026Z,46.32
2019-06-26T21:16:19.130Z,46.41
2019-06-26T21:18:50.231Z,46.60
2019-06-26T21:21:21.346Z,46.31
2019-06-26T21:23:52.062Z,46.10
2019-06-26T21:26:23.171Z,46.03
2019-06-26T21:28:54.671Z,45.92
2019-06-26T21:31:25.742Z,46.15
2019-06-26T21:33:57.012Z,46.19
2019-06-26T21:36:27.738Z,46.54
2019-06-26T21:38:58.479Z,46.61
2019-06-26T21:41:29.667Z,46.58
2019-06-26T21:44:01.214Z,46.92
2019-06-26T21:46:31.869Z,46.72
2019-06-26T21:49:03.836Z,46.67
2019-06-26T21:51:34.830Z,46.84
2019-06-26T21:54:05.599Z,46.60
2019-06-26T21:56:54.037Z,46.55
2019-06-26T21:59:42.779Z,47.17
2019-06-26T22:02:32.582Z,46.84
2019-06-26T22:05:11.339Z,46.75
2019-06-26T22:08:01.382Z,46.81
2019-06-26T22:10:37.074Z,46.92
2019-06-26T22:13:07.820Z,46.63
2019-06-26T22:15:38.805Z,46.47
2019-06-26T22:18:10.088Z,47.05
2019-06-26T22:20:41.176Z,47.19
2019-06-26T22:23:12.432Z,46.88
2019-06-26T22:25:50.758Z,47.47
2019-06-26T22:28:16.688Z,47.55
2019-06-26T22:30:47.426Z,47.57
2019-06-26T22:33:18.490Z,47.58
2019-06-26T22:35:49.236Z,47.65
2019-06-26T22:38:20.272Z,47.33
2019-06-26T22:40:51.303Z,47.39
2019-06-26T22:43:41.388Z,47.75
2019-06-26T22:46:12.431Z,47.74
2019-06-26T22:48:43.100Z,47.46
2019-06-26T22:51:13.837Z,47.59
2019-06-26T22:53:45.034Z,47.65
2019-06-26T22:56:16.101Z,48.06
2019-06-26T22:58:46.792Z,48.03
2019-06-26T23:01:17.778Z,48.22
2019-06-26T23:03:48.793Z,48.51
2019-06-26T23:06:20.166Z,48.57
2019-06-26T23:08:50.842Z,48.84
2019-06-26T23:11:21.538Z,48.54
2019-06-26T23:13:52.576Z,48.56
2019-06-26T23:16:23.586Z,49.11
2019-06-26T23:18:54.662Z,48.83
2019-06-26T23:21:25.684Z,49.26
2019-06-26T23:23:56.361Z,49.69
2019-06-26T23:26:27.411Z,49.42
2019-06-26T23:28:58.606Z,49.47
2019-06-26T23:31:29.364Z,49.59
2019-06-26T23:34:00.370Z,50.06
2019-06-26T23:36:31.417Z,49.85
2019-06-26T23:39:02.334Z,50.18
2019-06-26T23:41:33.291Z,50.11
2019-06-26T23:44:04.377Z,50.62
2019-06-26T23:46:35.059Z,50.15
2019-06-26T23:49:06.411Z,50.71
2019-06-26T23:51:38.367Z,50.74
2019-06-26T23:54:09.073Z,50.92
2019-06-26T23:56:40.996Z,51.13
2019-06-26T23:59:12.346Z,50.86
